createdAt,value
2016-09-27T00:00:00.032Z,11.45
2016-09-27T00:01:00.017Z,11.49
2016-09-27T00:02:00.371Z,11.48
2016-09-27T00:02:59.936Z,11.52
2016-09-27T00:03:59.976Z,11.45
2016-09-27T00:05:00.100Z,11.57
2016-09-27T00:06:00.109Z,11.41
2016-09-27T00:07:00.038Z,11.41
2016-09-27T00:08:00.096Z,11.33
2016-09-27T00:09:00.063Z,11.33
2016-09-27T00:10:00.041Z,11.28
2016-09-27T00:11:00.113Z,11.34
2016-09-27T00:12:00.113Z,11.23
2016-09-27T00:13:00.106Z,11.12
2016-09-27T00:14:00.149Z,11.21
2016-09-27T00:15:00.012Z,11.12
2016-09-27T00:16:00.104Z,11.15
2016-09-27T00:17:00.054Z,11.16
2016-09-27T00:18:00.261Z,11.12
2016-09-27T00:19:00.107Z,11
2016-09-27T00:20:00.146Z,11.06
2016-09-27T00:21:00.150Z,11.09
2016-09-27T00:21:59.987Z,11.09
2016-09-27T00:23:00.089Z,11.03
2016-09-27T00:24:00.063Z,11.09
2016-09-27T00:25:00.159Z,11.06
2016-09-27T00:26:00.007Z,10.98
2016-09-27T00:27:00.161Z,11.02
2016-09-27T00:28:00.095Z,11
2016-09-27T00:29:00.158Z,11.03
2016-09-27T00:30:00.046Z,11.03
2016-09-27T00:31:00.189Z,11
2016-09-27T00:32:00.088Z,11
2016-09-27T00:33:00.095Z,10.91
2016-09-27T00:34:00.178Z,10.94
2016-09-27T00:35:00.096Z,10.95
2016-09-27T00:36:00.104Z,10.97
2016-09-27T00:37:00.192Z,11
2016-09-27T00:38:00.150Z,10.98
2016-09-27T00:39:00.134Z,11.06
2016-09-27T00:40:00.111Z,11.06
2016-09-27T00:41:00.196Z,11.08
2016-09-27T00:42:00.214Z,10.95
2016-09-27T00:43:00.043Z,11.02
2016-09-27T00:44:00.130Z,11.08
2016-09-27T00:45:00.164Z,10.98
2016-09-27T00:46:00.216Z,11.09
2016-09-27T00:47:00.078Z,11.03
2016-09-27T00:48:00.052Z,11.05
2016-09-27T00:49:00.212Z,11.06
2016-09-27T00:50:00.348Z,11.09
2016-09-27T00:51:00.100Z,11.05
2016-09-27T00:52:00.104Z,11.02
2016-09-27T00:53:00.155Z,11.16
2016-09-27T00:54:00.114Z,11.1
2016-09-27T00:55:00.181Z,11.23
2016-09-27T00:56:00.197Z,11.12
2016-09-27T00:57:00.240Z,11.15
2016-09-27T00:58:00.250Z,11.16
2016-09-27T00:59:00.098Z,11.12
2016-09-27T01:00:00.238Z,11.1
2016-09-27T01:01:00.265Z,11.13
2016-09-27T01:02:00.222Z,11.13
2016-09-27T01:03:00.204Z,11.1
2016-09-27T01:04:00.211Z,11.15
2016-09-27T01:05:00.181Z,11.09
2016-09-27T01:06:00.390Z,11.24
2016-09-27T01:07:00.232Z,11.13
2016-09-27T01:08:00.111Z,11.12
2016-09-27T01:09:00.285Z,11.15
2016-09-27T01:10:00.415Z,11.21
2016-09-27T01:11:00.232Z,11.21
2016-09-27T01:12:00.238Z,11.1
2016-09-27T01:13:00.286Z,11.21
2016-09-27T01:14:00.221Z,11.06
2016-09-27T01:15:00.284Z,11.13
2016-09-27T01:16:00.212Z,11.12
2016-09-27T01:17:00.252Z,11.2
2016-09-27T01:18:00.140Z,11.06
2016-09-27T01:19:00.210Z,11.1
2016-09-27T01:20:00.183Z,11.09
2016-09-27T01:21:00.231Z,11.16
2016-09-27T01:22:00.358Z,11.05
2016-09-27T01:23:00.270Z,11.09
2016-09-27T01:24:00.300Z,11.05
2016-09-27T01:25:00.190Z,11.02
2016-09-27T01:26:00.320Z,11.08
2016-09-27T01:27:00.349Z,11.05
2016-09-27T01:28:00.293Z,10.97
2016-09-27T01:29:00.335Z,10.98
2016-09-27T01:30:00.438Z,10.98
2016-09-27T01:31:00.331Z,11.08
2016-09-27T01:32:00.298Z,10.94
2016-09-27T01:33:00.290Z,10.95
2016-09-27T01:34:00.311Z,11.05
2016-09-27T01:35:00.304Z,11.05
2016-09-27T01:36:00.218Z,10.94
2016-09-27T01:37:00.262Z,11.02
2016-09-27T01:38:00.399Z,11.03
2016-09-27T01:39:00.349Z,10.95
2016-09-27T01:40:00.371Z,11
2016-09-27T01:41:00.361Z,10.87
2016-09-27T01:42:00.354Z,10.9
2016-09-27T01:43:00.285Z,10.91
2016-09-27T01:44:00.313Z,10.91
2016-09-27T01:45:00.377Z,10.88
2016-09-27T01:46:00.297Z,10.84
2016-09-27T01:47:00.328Z,10.77
2016-09-27T01:48:00.370Z,10.76
2016-09-27T01:49:00.346Z,10.7
2016-09-27T01:50:00.387Z,10.66
2016-09-27T01:51:00.354Z,10.69
2016-09-27T01:52:00.232Z,10.61
2016-09-27T01:53:00.345Z,10.63
2016-09-27T01:54:00.485Z,10.65
2016-09-27T01:55:00.363Z,10.58
2016-09-27T01:56:00.331Z,10.59
2016-09-27T01:57:00.353Z,10.61
2016-09-27T01:58:00.316Z,10.47
2016-09-27T01:59:00.424Z,10.52
2016-09-27T02:00:00.427Z,10.46
2016-09-27T02:01:00.406Z,10.47
2016-09-27T02:02:00.368Z,10.51
2016-09-27T02:03:00.346Z,10.49
2016-09-27T02:04:00.395Z,10.47
2016-09-27T02:05:00.346Z,10.39
2016-09-27T02:06:00.278Z,10.35
2016-09-27T02:07:00.430Z,10.42
2016-09-27T02:08:00.281Z,10.33
2016-09-27T02:09:00.308Z,10.49
2016-09-27T02:10:00.532Z,10.46
2016-09-27T02:11:00.413Z,10.38
2016-09-27T02:12:00.367Z,10.33
2016-09-27T02:13:00.394Z,10.38
2016-09-27T02:14:00.437Z,10.35
2016-09-27T02:15:00.459Z,10.36
2016-09-27T02:16:00.374Z,10.31
2016-09-27T02:17:00.468Z,10.36
2016-09-27T02:18:00.458Z,10.36
2016-09-27T02:19:00.394Z,10.23
2016-09-27T02:20:00.395Z,10.21
2016-09-27T02:21:00.388Z,10.28
2016-09-27T02:22:00.473Z,10.28
2016-09-27T02:23:00.347Z,10.21
2016-09-27T02:24:00.395Z,10.29
2016-09-27T02:25:00.439Z,10.2
2016-09-27T02:26:00.766Z,10.18
2016-09-27T02:27:00.475Z,10.33
2016-09-27T02:28:00.445Z,10.2
2016-09-27T02:29:00.453Z,10.33
2016-09-27T02:30:00.485Z,10.36
2016-09-27T02:31:00.719Z,10.15
2016-09-27T02:32:00.499Z,10.15
2016-09-27T02:33:00.513Z,10.1
2016-09-27T02:34:00.460Z,10.11
2016-09-27T02:35:00.515Z,10
2016-09-27T02:36:00.462Z,10.02
2016-09-27T02:37:00.432Z,9.99
2016-09-27T02:38:00.442Z,10.11
2016-09-27T02:39:00.516Z,10.07
2016-09-27T02:40:00.428Z,10.14
2016-09-27T02:41:00.527Z,10.07
2016-09-27T02:42:00.880Z,10.03
2016-09-27T02:43:00.512Z,10
2016-09-27T02:44:00.527Z,10
2016-09-27T02:45:00.437Z,9.99
2016-09-27T02:46:00.466Z,9.98
2016-09-27T02:47:00.773Z,9.93
2016-09-27T02:48:00.423Z,10.02
2016-09-27T02:49:00.504Z,10.07
2016-09-27T02:50:00.524Z,9.98
2016-09-27T02:51:00.532Z,10.02
2016-09-27T02:52:00.577Z,9.93
2016-09-27T02:53:00.536Z,9.98
2016-09-27T02:54:00.526Z,9.93
2016-09-27T02:55:00.429Z,9.95
2016-09-27T02:56:00.483Z,9.9
2016-09-27T02:57:00.486Z,9.95
2016-09-27T02:58:01.097Z,9.92
2016-09-27T02:59:00.569Z,9.84
2016-09-27T03:00:00.497Z,9.72
2016-09-27T03:01:00.597Z,9.82
2016-09-27T03:02:00.499Z,9.82
2016-09-27T03:03:00.529Z,9.81
2016-09-27T03:04:00.513Z,9.82
2016-09-27T03:05:00.510Z,9.78
2016-09-27T03:06:00.521Z,9.78
2016-09-27T03:07:00.549Z,9.89
2016-09-27T03:08:00.553Z,9.89
2016-09-27T03:09:00.517Z,9.92
2016-09-27T03:10:00.736Z,9.81
2016-09-27T03:11:00.600Z,9.84
2016-09-27T03:12:00.497Z,9.78
2016-09-27T03:13:00.553Z,9.8
2016-09-27T03:14:00.582Z,9.8
2016-09-27T03:15:00.534Z,9.75
2016-09-27T03:16:00.621Z,9.82
2016-09-27T03:17:00.626Z,9.81
2016-09-27T03:18:00.554Z,9.71
2016-09-27T03:19:00.565Z,9.72
2016-09-27T03:20:00.551Z,9.67
2016-09-27T03:21:00.513Z,9.67
2016-09-27T03:22:00.494Z,9.66
2016-09-27T03:23:00.520Z,9.62
2016-09-27T03:24:00.613Z,9.6
2016-09-27T03:25:00.538Z,9.59
2016-09-27T03:26:00.607Z,9.57
2016-09-27T03:27:00.637Z,9.6
2016-09-27T03:28:00.552Z,9.6
2016-09-27T03:29:00.649Z,9.6
2016-09-27T03:30:00.741Z,9.64
2016-09-27T03:31:00.581Z,9.62
2016-09-27T03:32:00.616Z,9.64
2016-09-27T03:33:00.684Z,9.63
2016-09-27T03:34:00.660Z,9.62
2016-09-27T03:35:00.539Z,9.63
2016-09-27T03:36:00.606Z,9.63
2016-09-27T03:37:00.659Z,9.66
2016-09-27T03:38:00.676Z,9.6
2016-09-27T03:39:00.646Z,9.62
2016-09-27T03:40:00.682Z,9.56
2016-09-27T03:41:00.622Z,9.62
2016-09-27T03:42:00.576Z,9.56
2016-09-27T03:43:00.635Z,9.63
2016-09-27T03:44:00.639Z,9.63
2016-09-27T03:45:00.545Z,9.66
2016-09-27T03:46:00.707Z,9.66
2016-09-27T03:47:00.659Z,9.63
2016-09-27T03:48:00.637Z,9.6
2016-09-27T03:49:00.651Z,9.6
2016-09-27T03:50:00.711Z,9.53
2016-09-27T03:51:00.744Z,9.55
2016-09-27T03:52:00.607Z,9.6
2016-09-27T03:53:00.700Z,9.59
2016-09-27T03:54:00.665Z,9.47
2016-09-27T03:55:00.571Z,9.53
2016-09-27T03:56:00.655Z,9.44
2016-09-27T03:57:00.738Z,9.53
2016-09-27T03:58:00.705Z,9.53
2016-09-27T03:59:00.688Z,9.48
2016-09-27T04:00:00.679Z,9.53
2016-09-27T04:01:00.766Z,9.5
2016-09-27T04:02:00.821Z,9.48
2016-09-27T04:03:00.660Z,9.41
2016-09-27T04:04:00.717Z,9.5
2016-09-27T04:05:00.726Z,9.48
2016-09-27T04:06:00.737Z,9.42
2016-09-27T04:07:00.758Z,9.44
2016-09-27T04:08:00.728Z,9.48
2016-09-27T04:09:00.773Z,9.37
2016-09-27T04:10:00.764Z,9.5
2016-09-27T04:11:00.672Z,9.44
2016-09-27T04:12:00.706Z,9.44
2016-09-27T04:13:00.791Z,9.38
2016-09-27T04:14:00.713Z,9.45
2016-09-27T04:15:00.738Z,9.41
2016-09-27T04:16:00.799Z,9.41
2016-09-27T04:17:00.625Z,9.41
2016-09-27T04:18:01.107Z,9.47
2016-09-27T04:19:00.729Z,9.44
2016-09-27T04:20:00.786Z,9.39
2016-09-27T04:21:00.700Z,9.34
2016-09-27T04:22:00.756Z,9.39
2016-09-27T04:23:00.791Z,9.3
2016-09-27T04:24:00.790Z,9.21
2016-09-27T04:25:00.818Z,9.2
2016-09-27T04:26:00.664Z,9.21
2016-09-27T04:27:00.842Z,9.09
2016-09-27T04:28:00.763Z,9.19
2016-09-27T04:29:00.816Z,9.12
2016-09-27T04:30:00.808Z,9.29
2016-09-27T04:31:00.755Z,9.26
2016-09-27T04:32:00.809Z,9.32
2016-09-27T04:33:00.841Z,9.34
2016-09-27T04:34:00.957Z,9.24
2016-09-27T04:35:00.843Z,9.19
2016-09-27T04:36:00.853Z,9.12
2016-09-27T04:37:00.775Z,9.12
2016-09-27T04:38:00.803Z,9.17
2016-09-27T04:39:00.815Z,9.2
2016-09-27T04:40:00.817Z,9.11
2016-09-27T04:41:00.781Z,9.12
2016-09-27T04:42:00.790Z,9.09
2016-09-27T04:43:00.882Z,9.09
2016-09-27T04:44:00.804Z,9.23
2016-09-27T04:45:00.833Z,9.24
2016-09-27T04:46:00.828Z,9.26
2016-09-27T04:47:00.783Z,9.17
2016-09-27T04:48:00.826Z,9.23
2016-09-27T04:49:00.815Z,9.23
2016-09-27T04:50:01.001Z,9.16
2016-09-27T04:51:00.851Z,9.16
2016-09-27T04:52:00.836Z,9.21
2016-09-27T04:53:00.784Z,9.27
2016-09-27T04:54:00.901Z,9.16
2016-09-27T04:55:00.853Z,9.26
2016-09-27T04:56:00.798Z,9.26
2016-09-27T04:57:00.795Z,9.27
2016-09-27T04:58:00.872Z,9.23
2016-09-27T04:59:00.873Z,9.19
2016-09-27T05:00:00.785Z,9.16
2016-09-27T05:01:00.841Z,9.11
2016-09-27T05:02:00.835Z,9.03
2016-09-27T05:03:00.766Z,8.97
2016-09-27T05:04:00.933Z,9.01
2016-09-27T05:05:00.932Z,8.98
2016-09-27T05:06:01.121Z,8.9
2016-09-27T05:07:00.906Z,8.9
2016-09-27T05:08:00.789Z,8.95
2016-09-27T05:09:00.914Z,9.05
2016-09-27T05:10:00.789Z,9.17
2016-09-27T05:11:00.989Z,9.21
2016-09-27T05:12:00.824Z,9.27
2016-09-27T05:13:00.877Z,9.19
2016-09-27T05:14:00.952Z,9.27
2016-09-27T05:15:00.912Z,9.26
2016-09-27T05:16:00.941Z,9.23
2016-09-27T05:17:00.799Z,9.26
2016-09-27T05:18:00.960Z,9.35
2016-09-27T05:19:00.824Z,9.3
2016-09-27T05:20:00.917Z,9.38
2016-09-27T05:21:00.939Z,9.47
2016-09-27T05:22:01.023Z,9.52
2016-09-27T05:23:00.986Z,9.52
2016-09-27T05:24:00.907Z,9.52
2016-09-27T05:25:00.980Z,9.41
2016-09-27T05:26:00.976Z,9.39
2016-09-27T05:27:00.944Z,9.44
2016-09-27T05:28:00.935Z,9.41
2016-09-27T05:29:01.000Z,9.3
2016-09-27T05:30:01.042Z,9.29
2016-09-27T05:31:00.903Z,9.24
2016-09-27T05:32:00.950Z,9.21
2016-09-27T05:33:00.887Z,9.27
2016-09-27T05:34:00.896Z,9.2
2016-09-27T05:35:00.970Z,9.23
2016-09-27T05:36:00.912Z,9.12
2016-09-27T05:37:00.899Z,9.12
2016-09-27T05:38:01.070Z,9.05
2016-09-27T05:39:01.000Z,9.03
2016-09-27T05:40:00.994Z,9.05
2016-09-27T05:41:00.944Z,9.11
2016-09-27T05:42:01.023Z,9.08
2016-09-27T05:43:01.044Z,9.11
2016-09-27T05:44:00.963Z,9.08
2016-09-27T05:45:00.998Z,9.14
2016-09-27T05:46:00.985Z,9.14
2016-09-27T05:47:00.882Z,9.12
2016-09-27T05:48:00.964Z,9.3
2016-09-27T05:49:00.990Z,9.27
2016-09-27T05:50:00.980Z,9.34
2016-09-27T05:51:01.062Z,9.44
2016-09-27T05:52:01.021Z,9.52
2016-09-27T05:53:01.037Z,9.62
2016-09-27T05:54:01.203Z,9.7
2016-09-27T05:55:01.006Z,9.8
2016-09-27T05:56:01.069Z,9.72
2016-09-27T05:57:01.041Z,9.9
2016-09-27T05:58:01.085Z,9.88
2016-09-27T05:59:01.149Z,9.93
2016-09-27T06:00:01.004Z,10.03
2016-09-27T06:01:00.959Z,9.95
2016-09-27T06:02:01.106Z,10.07
2016-09-27T06:03:01.049Z,10.02
2016-09-27T06:04:01.007Z,10.14
2016-09-27T06:05:01.041Z,10.2
2016-09-27T06:06:01.020Z,10.23
2016-09-27T06:07:00.958Z,10.38
2016-09-27T06:08:01.073Z,10.35
2016-09-27T06:09:00.973Z,10.32
2016-09-27T06:10:01.148Z,10.36
2016-09-27T06:11:01.058Z,10.52
2016-09-27T06:12:01.089Z,10.47
2016-09-27T06:13:01.047Z,10.54
2016-09-27T06:14:01.055Z,10.63
2016-09-27T06:15:01.137Z,10.65
2016-09-27T06:16:01.099Z,10.84
2016-09-27T06:17:01.059Z,10.9
2016-09-27T06:18:01.051Z,11.06
2016-09-27T06:19:01.092Z,11.06
2016-09-27T06:20:01.020Z,10.92
2016-09-27T06:21:01.072Z,10.91
2016-09-27T06:22:01.069Z,10.88
2016-09-27T06:23:01.144Z,10.94
2016-09-27T06:24:01.075Z,10.91
2016-09-27T06:25:01.113Z,11.02
2016-09-27T06:26:01.453Z,11.27
2016-09-27T06:27:01.224Z,11.13
2016-09-27T06:28:01.165Z,11.13
2016-09-27T06:29:01.081Z,11.1
2016-09-27T06:30:01.184Z,11.24
2016-09-27T06:31:01.350Z,11.33
2016-09-27T06:32:01.124Z,11.21
2016-09-27T06:33:01.040Z,11.39
2016-09-27T06:34:01.117Z,11.48
2016-09-27T06:35:01.083Z,11.39
2016-09-27T06:36:01.165Z,11.38
2016-09-27T06:37:01.142Z,11.52
2016-09-27T06:38:01.162Z,11.61
2016-09-27T06:39:01.213Z,11.67
2016-09-27T06:40:01.110Z,11.66
2016-09-27T06:41:01.150Z,11.78
2016-09-27T06:42:01.576Z,11.76
2016-09-27T06:43:01.195Z,11.75
2016-09-27T06:44:01.200Z,11.85
2016-09-27T06:45:01.149Z,12.01
2016-09-27T06:46:01.188Z,12.07
2016-09-27T06:47:01.156Z,12.19
2016-09-27T06:48:01.094Z,12.2
2016-09-27T06:49:01.224Z,12.29
2016-09-27T06:50:01.139Z,12.4
2016-09-27T06:51:01.226Z,12.45
2016-09-27T06:52:01.059Z,12.55
2016-09-27T06:53:01.267Z,12.58
2016-09-27T06:54:01.178Z,12.61
2016-09-27T06:55:01.244Z,12.47
2016-09-27T06:56:01.275Z,12.61
2016-09-27T06:57:01.150Z,12.65
2016-09-27T06:58:01.360Z,12.61
2016-09-27T06:59:01.232Z,12.66
2016-09-27T07:00:01.153Z,12.7
2016-09-27T07:01:01.194Z,12.78
2016-09-27T07:02:01.260Z,12.86
2016-09-27T07:03:01.174Z,12.86
2016-09-27T07:04:01.283Z,12.99
2016-09-27T07:05:01.262Z,13.09
2016-09-27T07:06:01.182Z,13.17
2016-09-27T07:07:01.246Z,13.32
2016-09-27T07:08:01.199Z,13.31
2016-09-27T07:09:01.230Z,13.36
2016-09-27T07:10:01.278Z,13.5
2016-09-27T07:11:01.282Z,13.58
2016-09-27T07:12:01.224Z,13.62
2016-09-27T07:13:01.213Z,13.76
2016-09-27T07:14:01.275Z,13.79
2016-09-27T07:15:01.225Z,13.86
2016-09-27T07:16:01.215Z,13.88
2016-09-27T07:17:01.228Z,13.86
2016-09-27T07:18:01.223Z,14.05
2016-09-27T07:19:01.270Z,14.13
2016-09-27T07:20:01.200Z,14.33
2016-09-27T07:21:01.180Z,14.33
2016-09-27T07:22:01.903Z,14.53
2016-09-27T07:23:01.285Z,14.56
2016-09-27T07:24:01.247Z,14.53
2016-09-27T07:25:01.261Z,14.53
2016-09-27T07:26:01.396Z,14.77
2016-09-27T07:27:01.264Z,14.85
2016-09-27T07:28:01.334Z,15
2016-09-27T07:29:01.205Z,15.05
2016-09-27T07:30:01.464Z,15.25
2016-09-27T07:31:01.449Z,15.4
2016-09-27T07:32:01.339Z,15.44
2016-09-27T07:33:01.293Z,15.55
2016-09-27T07:34:01.362Z,15.68
2016-09-27T07:35:01.265Z,15.81
2016-09-27T07:36:01.191Z,16.02
2016-09-27T07:37:01.413Z,16.08
2016-09-27T07:38:01.347Z,16.21
2016-09-27T07:39:01.237Z,16.17
2016-09-27T07:40:01.291Z,16.32
2016-09-27T07:41:01.304Z,16.37
2016-09-27T07:42:01.426Z,16.51
2016-09-27T07:43:01.416Z,16.58
2016-09-27T07:44:01.324Z,16.63
2016-09-27T07:45:01.343Z,16.73
2016-09-27T07:46:01.428Z,16.9
2016-09-27T07:47:01.400Z,17.12
2016-09-27T07:48:01.309Z,17.13
2016-09-27T07:49:01.354Z,16.92
2016-09-27T07:50:01.392Z,17.05
2016-09-27T07:51:01.431Z,17.21
2016-09-27T07:52:01.805Z,16.8
2016-09-27T07:53:01.980Z,16.72
2016-09-27T07:54:02.206Z,16.67
2016-09-27T07:55:01.324Z,16.88
2016-09-27T07:56:01.390Z,17
2016-09-27T07:57:01.337Z,16.99
2016-09-27T07:58:01.329Z,17.15
2016-09-27T07:59:01.472Z,17.2
2016-09-27T08:00:01.477Z,17.21
2016-09-27T08:01:01.412Z,17.52
2016-09-27T08:02:01.783Z,17.94
2016-09-27T08:03:01.286Z,18.36
2016-09-27T08:04:01.480Z,18.61
2016-09-27T08:05:01.778Z,18.49
2016-09-27T08:06:01.455Z,18.34
2016-09-27T08:07:01.460Z,18.21
2016-09-27T08:08:01.373Z,18.21
2016-09-27T08:09:01.401Z,18.2
2016-09-27T08:10:01.406Z,18.34
2016-09-27T08:11:01.438Z,18.42
2016-09-27T08:12:01.454Z,18.5
2016-09-27T08:13:01.438Z,18.59
2016-09-27T08:14:01.484Z,18.61
2016-09-27T08:15:01.513Z,18.65
2016-09-27T08:16:01.435Z,18.65
2016-09-27T08:17:01.423Z,18.69
2016-09-27T08:18:01.577Z,18.71
2016-09-27T08:19:01.439Z,18.65
2016-09-27T08:20:01.470Z,18.87
2016-09-27T08:21:01.479Z,19.15
2016-09-27T08:22:01.523Z,19.42
2016-09-27T08:23:01.571Z,19.49
2016-09-27T08:24:01.509Z,19.27
2016-09-27T08:25:01.529Z,19.27
2016-09-27T08:26:01.577Z,19.43
2016-09-27T08:27:01.527Z,19.4
2016-09-27T08:28:01.515Z,19.5
2016-09-27T08:29:01.492Z,19.67
2016-09-27T08:30:01.469Z,20.02
2016-09-27T08:31:01.578Z,20.15
2016-09-27T08:32:01.525Z,20.61
2016-09-27T08:33:01.549Z,20.81
2016-09-27T08:34:01.643Z,21.08
2016-09-27T08:35:01.547Z,21.11
2016-09-27T08:36:01.547Z,21.11
2016-09-27T08:37:01.578Z,20.75
2016-09-27T08:38:01.552Z,20.9
2016-09-27T08:39:01.567Z,20.38
2016-09-27T08:40:02.170Z,20.15
2016-09-27T08:41:01.732Z,20.05
2016-09-27T08:42:01.518Z,19.63
2016-09-27T08:43:01.509Z,19.8
2016-09-27T08:44:01.444Z,19.9
2016-09-27T08:45:01.522Z,19.61
2016-09-27T08:46:01.531Z,19.72
2016-09-27T08:47:01.508Z,19.92
2016-09-27T08:48:01.565Z,20
2016-09-27T08:49:01.488Z,20.23
2016-09-27T08:50:01.746Z,20.38
2016-09-27T08:51:01.600Z,20.83
2016-09-27T08:52:01.521Z,20.64
2016-09-27T08:53:01.444Z,20.07
2016-09-27T08:54:01.437Z,19.57
2016-09-27T08:55:01.856Z,19.64
2016-09-27T08:56:01.590Z,19.87
2016-09-27T08:57:01.542Z,20.12
2016-09-27T08:58:01.552Z,20.27
2016-09-27T08:59:01.612Z,20.34
2016-09-27T09:00:01.558Z,20.64
2016-09-27T09:01:02.255Z,20.96
2016-09-27T09:02:01.592Z,21.06
2016-09-27T09:03:01.486Z,21.13
2016-09-27T09:04:01.596Z,21.3
2016-09-27T09:05:01.514Z,21.21
2016-09-27T09:06:02.079Z,20.75
2016-09-27T09:07:01.652Z,20.93
2016-09-27T09:08:01.539Z,21.16
2016-09-27T09:09:01.589Z,21.16
2016-09-27T09:10:01.599Z,21.19
2016-09-27T09:11:01.506Z,21.25
2016-09-27T09:12:01.636Z,21.22
2016-09-27T09:13:01.699Z,21.36
2016-09-27T09:14:04.230Z,21.61
2016-09-27T09:15:02.294Z,21.99
2016-09-27T09:16:01.656Z,21.76
2016-09-27T09:17:01.616Z,22
2016-09-27T09:18:01.645Z,22.02
2016-09-27T09:19:01.662Z,22.11
2016-09-27T09:20:01.602Z,21.66
2016-09-27T09:21:01.722Z,21.83
2016-09-27T09:22:03.954Z,21.68
2016-09-27T09:23:01.687Z,21.18
2016-09-27T09:24:01.612Z,21.56
2016-09-27T09:25:01.647Z,22
2016-09-27T09:26:01.766Z,22.04
2016-09-27T09:27:01.770Z,22.09
2016-09-27T09:28:01.697Z,22.14
2016-09-27T09:29:01.736Z,22
2016-09-27T09:30:01.597Z,21.96
2016-09-27T09:31:01.721Z,21.96
2016-09-27T09:32:01.726Z,21.83
2016-09-27T09:33:01.735Z,22.02
2016-09-27T09:34:01.607Z,22.33
2016-09-27T09:35:01.709Z,22.51
2016-09-27T09:36:01.736Z,21.9
2016-09-27T09:37:01.713Z,22.26
2016-09-27T09:38:01.917Z,22.66
2016-09-27T09:39:01.660Z,22.85
2016-09-27T09:40:01.659Z,21.53
2016-09-27T09:41:01.750Z,21.27
2016-09-27T09:42:01.723Z,21.38
2016-09-27T09:43:01.761Z,22.04
2016-09-27T09:44:01.672Z,22.82
2016-09-27T09:45:01.651Z,23.24
2016-09-27T09:46:01.702Z,23.03
2016-09-27T09:47:01.708Z,23.01
2016-09-27T09:48:01.784Z,22.96
2016-09-27T09:49:01.776Z,22.89
2016-09-27T09:50:01.892Z,22.89
2016-09-27T09:51:01.826Z,22.86
2016-09-27T09:52:01.762Z,22.85
2016-09-27T09:53:01.824Z,22.91
2016-09-27T09:54:02.196Z,22.3
2016-09-27T09:55:01.767Z,22.41
2016-09-27T09:56:01.741Z,22.55
2016-09-27T09:57:01.721Z,22.79
2016-09-27T09:58:01.836Z,22.86
2016-09-27T09:59:01.717Z,23.47
2016-09-27T10:00:01.692Z,23.89
2016-09-27T10:01:01.730Z,23.99
2016-09-27T10:02:01.759Z,23.77
2016-09-27T10:03:01.830Z,23.56
2016-09-27T10:04:01.762Z,23.72
2016-09-27T10:05:01.748Z,23.53
2016-09-27T10:06:01.839Z,23.26
2016-09-27T10:07:01.743Z,23.26
2016-09-27T10:08:01.805Z,23.55
2016-09-27T10:09:01.816Z,23.81
2016-09-27T10:10:02.311Z,24.11
2016-09-27T10:11:01.746Z,24.32
2016-09-27T10:12:01.752Z,23.99
2016-09-27T10:13:01.855Z,23.87
2016-09-27T10:14:01.795Z,24.04
2016-09-27T10:15:01.852Z,23.75
2016-09-27T10:16:01.924Z,23.56
2016-09-27T10:17:01.857Z,23.24
2016-09-27T10:18:01.787Z,23.26
2016-09-27T10:19:01.816Z,23.42
2016-09-27T10:20:01.810Z,23.12
2016-09-27T10:21:01.769Z,23.52
2016-09-27T10:22:01.898Z,23.41
2016-09-27T10:23:01.783Z,23.41
2016-09-27T10:24:01.862Z,22.85
2016-09-27T10:25:01.832Z,23.15
2016-09-27T10:26:01.996Z,23.41
2016-09-27T10:27:02.003Z,23.34
2016-09-27T10:28:01.958Z,22.86
2016-09-27T10:29:01.760Z,23.12
2016-09-27T10:30:01.799Z,23.63
2016-09-27T10:31:01.924Z,23.99
2016-09-27T10:32:01.760Z,23.9
2016-09-27T10:33:01.886Z,23.52
2016-09-27T10:34:01.870Z,23.56
2016-09-27T10:35:01.914Z,23.75
2016-09-27T10:36:01.860Z,24.27
2016-09-27T10:37:01.896Z,24.34
2016-09-27T10:38:01.894Z,24.15
2016-09-27T10:39:01.866Z,24.17
2016-09-27T10:40:01.847Z,23.42
2016-09-27T10:41:01.769Z,23.18
2016-09-27T10:42:02.096Z,23.5
2016-09-27T10:43:01.946Z,23.44
2016-09-27T10:44:01.828Z,23.32
2016-09-27T10:45:01.913Z,23.99
2016-09-27T10:46:01.832Z,24.27
2016-09-27T10:47:02.096Z,24.8
2016-09-27T10:48:01.970Z,24.89
2016-09-27T10:49:01.928Z,24.33
2016-09-27T10:50:01.919Z,24.36
2016-09-27T10:51:06.144Z,24.7
2016-09-27T10:52:13.993Z,24.92
2016-09-27T10:53:09.569Z,24.42
2016-09-27T10:54:06.475Z,23.14
2016-09-27T10:55:07.288Z,22.91
2016-09-27T10:56:01.969Z,22.91
2016-09-27T10:57:01.932Z,23.29
2016-09-27T10:58:02.158Z,23.94
2016-09-27T10:59:01.986Z,24.26
2016-09-27T11:00:01.954Z,24.86
2016-09-27T11:01:01.978Z,24.97
2016-09-27T11:02:01.937Z,25.07
2016-09-27T11:03:02.015Z,25.05
2016-09-27T11:04:01.989Z,25.15
2016-09-27T11:05:01.983Z,25.04
2016-09-27T11:06:01.930Z,24.86
2016-09-27T11:07:02.171Z,24.8
2016-09-27T11:08:02.011Z,24.64
2016-09-27T11:09:02.042Z,24
2016-09-27T11:10:02.013Z,23.92
2016-09-27T11:11:02.028Z,24.29
2016-09-27T11:12:02.622Z,24.03
2016-09-27T11:13:01.980Z,23.6
2016-09-27T11:14:02.305Z,23.19
2016-09-27T11:15:02.021Z,23.59
2016-09-27T11:16:01.922Z,24.18
2016-09-27T11:17:01.956Z,25.05
2016-09-27T11:18:01.912Z,25.47
2016-09-27T11:19:02.290Z,26.32
2016-09-27T11:20:01.914Z,26.81
2016-09-27T11:21:02.041Z,27.26
2016-09-27T11:22:02.057Z,27.41
2016-09-27T11:23:01.959Z,27.18
2016-09-27T11:24:02.649Z,27.21
2016-09-27T11:25:02.050Z,27.26
2016-09-27T11:26:02.092Z,27.38
2016-09-27T11:27:02.008Z,27.46
2016-09-27T11:28:01.955Z,26.52
2016-09-27T11:29:02.095Z,26.17
2016-09-27T11:30:02.387Z,25.59
2016-09-27T11:31:02.068Z,25.15
2016-09-27T11:32:01.990Z,25.69
2016-09-27T11:33:01.951Z,25.81
2016-09-27T11:34:02.025Z,26.23
2016-09-27T11:35:02.305Z,26.79
2016-09-27T11:36:02.086Z,27.49
2016-09-27T11:37:02.028Z,26.96
2016-09-27T11:38:02.006Z,26.16
2016-09-27T11:39:02.131Z,24.9
2016-09-27T11:40:01.977Z,24.29
2016-09-27T11:41:02.096Z,23.72
2016-09-27T11:42:02.121Z,22.7
2016-09-27T11:43:02.217Z,22.76
2016-09-27T11:44:02.148Z,23
2016-09-27T11:45:02.965Z,23.01
2016-09-27T11:46:02.136Z,23.24
2016-09-27T11:47:02.053Z,23.09
2016-09-27T11:48:02.158Z,23.44
2016-09-27T11:49:02.134Z,24.09
2016-09-27T11:50:02.710Z,24.93
2016-09-27T11:51:12.523Z,25.51
2016-09-27T11:52:04.404Z,26.03
2016-09-27T11:53:02.207Z,25.91
2016-09-27T11:54:02.073Z,25.52
2016-09-27T11:55:02.195Z,25.48
2016-09-27T11:56:02.542Z,24.49
2016-09-27T11:57:02.714Z,24.18
2016-09-27T11:58:02.101Z,24.18
2016-09-27T11:59:02.052Z,24.24
2016-09-27T12:00:02.114Z,24.02
2016-09-27T12:01:02.140Z,24.08
2016-09-27T12:02:02.233Z,24.36
2016-09-27T12:03:02.041Z,23.9
2016-09-27T12:04:02.167Z,23.04
2016-09-27T12:05:02.095Z,22.78
2016-09-27T12:06:02.130Z,22.92
2016-09-27T12:07:02.226Z,23.59
2016-09-27T12:08:02.149Z,24.52
2016-09-27T12:09:02.211Z,25.38
2016-09-27T12:10:02.191Z,25.82
2016-09-27T12:11:02.131Z,25.94
2016-09-27T12:12:02.316Z,25.34
2016-09-27T12:13:02.111Z,25.02
2016-09-27T12:14:02.224Z,25.12
2016-09-27T12:15:02.176Z,25.01
2016-09-27T12:16:02.117Z,25.04
2016-09-27T12:17:02.240Z,25.02
2016-09-27T12:18:02.177Z,24.89
2016-09-27T12:19:02.765Z,24.9
2016-09-27T12:20:02.186Z,24.71
2016-09-27T12:21:02.119Z,24.12
2016-09-27T12:22:02.116Z,23.7
2016-09-27T12:23:02.406Z,23.16
2016-09-27T12:24:02.237Z,23.89
2016-09-27T12:25:02.152Z,23.38
2016-09-27T12:26:02.154Z,24.17
2016-09-27T12:27:02.170Z,24.08
2016-09-27T12:28:02.635Z,24.03
2016-09-27T12:29:02.152Z,24.51
2016-09-27T12:30:02.263Z,24.86
2016-09-27T12:31:02.283Z,24.94
2016-09-27T12:32:02.239Z,24.34
2016-09-27T12:33:02.177Z,24.4
2016-09-27T12:34:02.178Z,24.36
2016-09-27T12:35:02.313Z,25.14
2016-09-27T12:36:02.127Z,24.32
2016-09-27T12:37:02.225Z,24.39
2016-09-27T12:38:02.143Z,24.49
2016-09-27T12:39:02.261Z,24.87
2016-09-27T12:40:02.260Z,25.27
2016-09-27T12:41:02.188Z,25.17
2016-09-27T12:42:03.006Z,24.66
2016-09-27T12:43:02.257Z,24.92
2016-09-27T12:44:02.468Z,25.27
2016-09-27T12:45:02.253Z,25.79
2016-09-27T12:46:02.260Z,26.26
2016-09-27T12:47:03.057Z,26.37
2016-09-27T12:48:02.167Z,26.01
2016-09-27T12:49:02.308Z,25.45
2016-09-27T12:50:02.162Z,24.29
2016-09-27T12:51:02.256Z,24.15
2016-09-27T12:52:02.243Z,23.57
2016-09-27T12:53:02.295Z,23.72
2016-09-27T12:54:02.196Z,23.79
2016-09-27T12:55:02.294Z,24.4
2016-09-27T12:56:02.307Z,25.12
2016-09-27T12:57:02.313Z,25.12
2016-09-27T12:58:02.184Z,24.93
2016-09-27T12:59:02.315Z,24.29
2016-09-27T13:00:02.798Z,24.32
2016-09-27T13:01:02.269Z,24.58
2016-09-27T13:02:02.231Z,24.92